createdAt,value
2023-01-10T00:00:35.412Z,2.83
2023-01-10T00:03:06.008Z,5.87
2023-01-10T00:05:33.169Z,4.57
2023-01-10T00:08:02.018Z,4.33
2023-01-10T00:10:29.212Z,5.57
2023-01-10T00:13:14.866Z,5.27
2023-01-10T00:15:41.912Z,2.80
2023-01-10T00:18:09.395Z,1.97
2023-01-10T00:20:36.440Z,5.83
2023-01-10T00:23:03.728Z,3.80
2023-01-10T00:25:30.865Z,2.87
2023-01-10T00:28:04.629Z,1.93
2023-01-10T00:30:33.679Z,2.87
2023-01-10T00:33:00.739Z,2.53
2023-01-10T00:35:27.849Z,3.50
2023-01-10T00:38:01.243Z,4.23
2023-01-10T00:40:28.278Z,4.90
2023-01-10T00:43:14.340Z,3.47
2023-01-10T00:45:41.374Z,2.93
2023-01-10T00:48:08.391Z,5.03
2023-01-10T00:50:35.419Z,5.63
2023-01-10T00:53:02.531Z,4.47
2023-01-10T00:55:29.287Z,6.27
2023-01-10T00:57:56.435Z,6.43
2023-01-10T01:00:23.506Z,3.43
2023-01-10T01:02:51.600Z,4.03
2023-01-10T01:05:19.142Z,5.60
2023-01-10T01:07:50.636Z,6.27
2023-01-10T01:10:26.998Z,8.03
2023-01-10T01:12:58.416Z,10.63
2023-01-10T01:15:26.588Z,7.57
2023-01-10T01:17:53.915Z,9.93
2023-01-10T01:20:21.684Z,7.73
2023-01-10T01:22:48.795Z,7.70
2023-01-10T01:25:15.845Z,9.27
2023-01-10T01:27:42.891Z,7.73
2023-01-10T01:30:11.062Z,10.87
2023-01-10T01:32:38.167Z,9.17
2023-01-10T01:35:07.188Z,10.60
2023-01-10T01:37:34.070Z,11.37
2023-01-10T01:40:00.680Z,8.03
2023-01-10T01:42:28.900Z,13.43
2023-01-10T01:45:11.155Z,13.53
2023-01-10T01:48:02.919Z,10.33
2023-01-10T01:50:37.196Z,14.83
2023-01-10T01:53:10.173Z,11.30
2023-01-10T01:55:38.519Z,11.50
2023-01-10T01:58:12.635Z,11.03
2023-01-10T02:00:39.662Z,12.77
2023-01-10T02:03:06.995Z,8.97
2023-01-10T02:05:36.288Z,14.17
2023-01-10T02:08:03.479Z,10.63
2023-01-10T02:10:37.494Z,12.83
2023-01-10T02:13:06.947Z,13.20
2023-01-10T02:15:33.961Z,11.60
2023-01-10T02:18:02.908Z,13.30
2023-01-10T02:20:33.118Z,11.30
2023-01-10T02:23:41.259Z,13.73
2023-01-10T02:26:43.506Z,15.27
2023-01-10T02:29:47.615Z,14.63
2023-01-10T02:32:43.931Z,10.63
2023-01-10T02:36:00.467Z,13.10
2023-01-10T02:38:42.123Z,11.10
2023-01-10T02:41:31.070Z,11.93
2023-01-10T02:44:07.100Z,10.73
2023-01-10T02:46:35.668Z,15.43
2023-01-10T02:49:02.793Z,8.97
2023-01-10T02:51:33.391Z,13.70
2023-01-10T02:54:13.558Z,10.23
2023-01-10T02:57:01.264Z,16.17
2023-01-10T02:59:31.363Z,11.20
2023-01-10T03:02:27.739Z,11.57
2023-01-10T03:05:15.299Z,8.73
2023-01-10T03:08:03.196Z,6.87
2023-01-10T03:10:40.087Z,12.50
2023-01-10T03:13:21.378Z,16.03
2023-01-10T03:15:48.784Z,10.37
2023-01-10T03:18:24.357Z,8.40
2023-01-10T03:20:52.716Z,14.63
2023-01-10T03:23:22.238Z,12.43
2023-01-10T03:25:52.273Z,13.40
2023-01-10T03:28:29.242Z,11.80
2023-01-10T03:31:02.174Z,8.97
2023-01-10T03:33:32.075Z,13.53
2023-01-10T03:36:26.729Z,13.80
2023-01-10T03:39:04.989Z,10.63
2023-01-10T03:41:46.721Z,15.77
2023-01-10T03:44:44.667Z,16.17
2023-01-10T03:47:13.825Z,12.90
2023-01-10T03:49:43.241Z,17.20
2023-01-10T03:52:13.836Z,14.93
2023-01-10T03:54:43.267Z,15.40
2023-01-10T03:57:19.160Z,10.33
2023-01-10T03:59:47.076Z,18.40
2023-01-10T04:02:14.178Z,11.10
2023-01-10T04:04:41.308Z,14.80
2023-01-10T04:07:08.095Z,15.23
2023-01-10T04:09:34.873Z,11.90
2023-01-10T04:12:02.172Z,15.17
2023-01-10T04:14:28.824Z,16.80
2023-01-10T04:16:55.893Z,15.70
2023-01-10T04:19:22.956Z,23.43
2023-01-10T04:21:50.055Z,12.17
2023-01-10T04:24:17.122Z,16.43
2023-01-10T04:26:44.704Z,11.37
2023-01-10T04:29:11.823Z,13.20
2023-01-10T04:31:39.993Z,11.13
2023-01-10T04:34:08.128Z,18.27
2023-01-10T04:36:35.323Z,12.30
2023-01-10T04:39:02.493Z,11.80
2023-01-10T04:41:29.607Z,14.97
2023-01-10T04:43:56.717Z,12.10
2023-01-10T04:46:23.790Z,11.50
2023-01-10T04:48:50.947Z,11.07
2023-01-10T04:51:17.969Z,12.80
2023-01-10T04:53:45.017Z,19.53
2023-01-10T04:56:19.524Z,15.20
2023-01-10T04:58:47.192Z,12.50
2023-01-10T05:01:20.960Z,13.30
2023-01-10T05:03:52.275Z,13.97
2023-01-10T05:06:19.578Z,11.93
2023-01-10T05:08:46.687Z,14.60
2023-01-10T05:11:13.563Z,15.20
2023-01-10T05:13:40.933Z,14.80
2023-01-10T05:16:07.697Z,10.93
2023-01-10T05:18:34.922Z,9.83
2023-01-10T05:21:04.060Z,10.70
2023-01-10T05:23:31.315Z,16.47
2023-01-10T05:25:58.015Z,11.57
2023-01-10T05:28:25.084Z,17.07
2023-01-10T05:30:52.114Z,12.60
2023-01-10T05:33:19.159Z,13.43
2023-01-10T05:35:46.178Z,9.80
2023-01-10T05:38:13.249Z,14.67
2023-01-10T05:40:40.427Z,8.97
2023-01-10T05:43:07.576Z,12.00
2023-01-10T05:45:34.687Z,14.53
2023-01-10T05:48:01.721Z,13.03
2023-01-10T05:50:28.786Z,7.83
2023-01-10T05:53:05.579Z,10.13
2023-01-10T05:55:32.794Z,8.10
2023-01-10T05:57:59.863Z,9.90
2023-01-10T06:00:27.095Z,12.77
2023-01-10T06:02:57.396Z,9.47
2023-01-10T06:05:24.499Z,8.20
2023-01-10T06:07:51.370Z,12.43
2023-01-10T06:10:18.114Z,8.83
2023-01-10T06:12:45.152Z,11.47
2023-01-10T06:15:11.783Z,10.27
2023-01-10T06:17:38.820Z,16.13
2023-01-10T06:20:06.299Z,17.83
2023-01-10T06:22:32.914Z,11.83
2023-01-10T06:25:02.224Z,11.40
2023-01-10T06:27:28.996Z,10.77
2023-01-10T06:29:56.721Z,12.97
2023-01-10T06:32:23.789Z,23.83
2023-01-10T06:34:50.827Z,15.47
2023-01-10T06:37:20.099Z,10.20
2023-01-10T06:39:46.924Z,6.17
2023-01-10T06:42:14.013Z,12.67
2023-01-10T06:44:40.716Z,10.97
2023-01-10T06:47:07.717Z,12.47
2023-01-10T06:49:34.751Z,10.80
2023-01-10T06:52:01.372Z,11.50
2023-01-10T06:54:28.421Z,12.83
2023-01-10T06:56:55.442Z,17.00
2023-01-10T06:59:22.560Z,9.93
2023-01-10T07:01:49.851Z,12.03
2023-01-10T07:04:17.014Z,12.10
2023-01-10T07:06:44.088Z,8.93
2023-01-10T07:09:11.193Z,8.50
2023-01-10T07:11:38.285Z,10.60
2023-01-10T07:14:05.389Z,9.67
2023-01-10T07:16:32.507Z,11.17
2023-01-10T07:18:59.924Z,15.67
2023-01-10T07:21:26.948Z,10.33
2023-01-10T07:23:54.005Z,10.57
2023-01-10T07:26:21.360Z,13.60
2023-01-10T07:28:52.857Z,13.60
2023-01-10T07:31:22.706Z,10.67
2023-01-10T07:33:51.157Z,7.80
2023-01-10T07:36:18.216Z,17.20
2023-01-10T07:38:44.838Z,7.53
2023-01-10T07:41:11.903Z,11.50
2023-01-10T07:43:39.001Z,10.67
2023-01-10T07:46:12.009Z,13.33
2023-01-10T07:48:41.930Z,14.20
2023-01-10T07:51:09.850Z,12.17
2023-01-10T07:53:37.053Z,9.97
2023-01-10T07:56:04.347Z,10.87
2023-01-10T07:58:31.665Z,7.30
2023-01-10T08:00:59.586Z,13.20
2023-01-10T08:03:26.676Z,18.13
2023-01-10T08:06:10.171Z,17.87
2023-01-10T08:08:37.253Z,12.00
2023-01-10T08:11:05.034Z,11.67
2023-01-10T08:13:32.666Z,11.20
2023-01-10T08:15:59.814Z,10.53
2023-01-10T08:18:26.990Z,18.60
2023-01-10T08:20:54.479Z,11.87
2023-01-10T08:23:21.790Z,11.53
2023-01-10T08:25:49.146Z,14.27
2023-01-10T08:28:16.234Z,16.73
2023-01-10T08:30:43.194Z,17.27
2023-01-10T08:33:11.046Z,7.77
2023-01-10T08:35:42.739Z,14.47
2023-01-10T08:38:10.911Z,19.60
2023-01-10T08:40:38.122Z,13.03
2023-01-10T08:43:07.379Z,15.60
2023-01-10T08:45:34.899Z,11.80
2023-01-10T08:48:02.117Z,15.27
2023-01-10T08:50:29.331Z,23.97
2023-01-10T08:53:00.069Z,13.80
2023-01-10T08:55:28.303Z,16.30
2023-01-10T08:57:55.028Z,9.50
2023-01-10T09:00:22.389Z,12.10
2023-01-10T09:02:49.512Z,18.00
2023-01-10T09:05:27.093Z,11.73
2023-01-10T09:08:00.009Z,10.10
2023-01-10T09:10:27.288Z,16.00
2023-01-10T09:12:57.416Z,12.83
2023-01-10T09:15:33.699Z,21.53
2023-01-10T09:18:02.597Z,22.30
2023-01-10T09:20:30.222Z,20.60
2023-01-10T09:22:58.307Z,15.67
2023-01-10T09:25:25.638Z,16.77
2023-01-10T09:27:59.595Z,18.23
2023-01-10T09:30:26.833Z,18.17
2023-01-10T09:32:54.515Z,19.70
2023-01-10T09:35:21.559Z,14.40
2023-01-10T09:37:48.645Z,21.67
2023-01-10T09:40:19.347Z,13.50
2023-01-10T09:43:13.539Z,23.47
2023-01-10T09:46:10.176Z,22.00
2023-01-10T09:48:56.536Z,23.63
2023-01-10T09:51:37.286Z,17.97
2023-01-10T09:54:12.326Z,19.63
2023-01-10T09:56:40.611Z,31.23
2023-01-10T09:59:17.248Z,31.03
2023-01-10T10:01:46.730Z,22.43
2023-01-10T10:04:21.507Z,12.37
2023-01-10T10:06:52.558Z,21.23
2023-01-10T10:09:35.115Z,23.20
2023-01-10T10:12:17.972Z,18.47
2023-01-10T10:14:54.763Z,19.40
2023-01-10T10:17:46.708Z,19.03
2023-01-10T10:20:47.042Z,20.80
2023-01-10T10:23:53.407Z,20.73
2023-01-10T10:26:36.113Z,31.00
2023-01-10T10:29:11.810Z,20.17
2023-01-10T10:31:56.744Z,20.70
2023-01-10T10:34:36.498Z,22.57
2023-01-10T10:37:21.498Z,23.17
2023-01-10T10:39:53.712Z,26.27
2023-01-10T10:42:20.972Z,14.70
2023-01-10T10:44:55.134Z,15.90
2023-01-10T10:47:23.711Z,26.47
2023-01-10T10:49:50.930Z,23.17
2023-01-10T10:52:24.658Z,23.13
2023-01-10T10:54:52.794Z,23.30
2023-01-10T10:57:24.129Z,23.50
2023-01-10T10:59:51.275Z,20.10
2023-01-10T11:02:38.984Z,18.80
2023-01-10T11:05:13.900Z,16.03
2023-01-10T11:07:41.053Z,24.13
2023-01-10T11:10:34.900Z,18.57
2023-01-10T11:13:12.466Z,25.40
2023-01-10T11:15:45.091Z,22.67
2023-01-10T11:18:16.359Z,25.17
2023-01-10T11:21:10.444Z,26.43
2023-01-10T11:23:40.109Z,23.03
2023-01-10T11:26:30.790Z,17.97
2023-01-10T11:29:38.162Z,19.27
2023-01-10T11:32:15.133Z,17.50
2023-01-10T11:34:53.541Z,19.43
2023-01-10T11:37:29.162Z,13.93
2023-01-10T11:40:17.689Z,15.17
2023-01-10T11:42:45.043Z,12.03
2023-01-10T11:45:22.807Z,14.70
2023-01-10T11:47:49.932Z,18.93
2023-01-10T11:50:21.793Z,14.43
2023-01-10T11:52:50.039Z,18.13
2023-01-10T11:55:37.581Z,15.07
2023-01-10T11:58:13.432Z,14.50
2023-01-10T12:00:46.502Z,27.13
2023-01-10T12:03:20.454Z,21.97
2023-01-10T12:05:59.734Z,26.00
2023-01-10T12:08:34.802Z,25.37
2023-01-10T12:11:31.468Z,21.07
2023-01-10T12:14:00.895Z,13.00
2023-01-10T12:16:33.047Z,19.07
2023-01-10T12:19:07.255Z,20.27
2023-01-10T12:21:39.906Z,20.73
2023-01-10T12:24:15.709Z,20.40
2023-01-10T12:26:43.454Z,20.47
2023-01-10T12:29:19.651Z,31.47
2023-01-10T12:31:46.764Z,17.33
2023-01-10T12:34:13.801Z,15.57
2023-01-10T12:37:16.661Z,20.10
2023-01-10T12:39:55.410Z,21.60
2023-01-10T12:42:43.733Z,13.60
2023-01-10T12:45:19.398Z,12.37
2023-01-10T12:48:04.753Z,17.90
2023-01-10T12:50:43.488Z,18.97
2023-01-10T12:53:33.792Z,14.37
2023-01-10T12:56:05.912Z,15.43
2023-01-10T12:58:43.946Z,9.37
2023-01-10T13:01:45.491Z,12.30
2023-01-10T13:04:16.593Z,13.23
2023-01-10T13:06:44.333Z,16.40
2023-01-10T13:09:19.658Z,12.33
2023-01-10T13:12:02.457Z,12.40
2023-01-10T13:14:45.859Z,12.43
2023-01-10T13:17:13.034Z,11.40
2023-01-10T13:19:40.386Z,17.37
2023-01-10T13:22:21.516Z,16.03
2023-01-10T13:24:59.569Z,11.57
2023-01-10T13:27:32.029Z,13.83
2023-01-10T13:29:59.306Z,18.30
2023-01-10T13:32:32.207Z,16.23
2023-01-10T13:35:16.023Z,28.63
2023-01-10T13:37:45.019Z,26.37
2023-01-10T13:40:21.256Z,11.80
2023-01-10T13:43:33.430Z,10.77
2023-01-10T13:46:18.355Z,12.83
2023-01-10T13:49:11.358Z,20.30
2023-01-10T13:51:39.768Z,10.47
2023-01-10T13:54:18.210Z,11.97
2023-01-10T13:56:45.145Z,9.27
2023-01-10T13:59:50.596Z,11.77
2023-01-10T14:02:34.197Z,13.10
2023-01-10T14:05:03.633Z,8.07
2023-01-10T14:07:48.777Z,8.53
2023-01-10T14:10:27.594Z,9.60
2023-01-10T14:13:09.108Z,9.43
2023-01-10T14:15:41.986Z,14.73
2023-01-10T14:18:22.436Z,9.67
2023-01-10T14:21:02.243Z,9.83
2023-01-10T14:23:35.675Z,12.90
2023-01-10T14:26:03.156Z,9.07
2023-01-10T14:28:33.000Z,8.43
2023-01-10T14:31:00.463Z,9.10
2023-01-10T14:33:27.877Z,5.73
2023-01-10T14:36:02.351Z,11.57
2023-01-10T14:38:32.460Z,7.93
2023-01-10T14:41:06.203Z,12.43
2023-01-10T14:43:45.220Z,7.27
2023-01-10T14:46:17.604Z,11.00
2023-01-10T14:48:51.507Z,6.50
2023-01-10T14:51:20.848Z,11.80
2023-01-10T14:53:55.763Z,19.90
2023-01-10T14:56:44.852Z,10.77
2023-01-10T14:59:18.894Z,11.70
2023-01-10T15:01:49.046Z,9.17
2023-01-10T15:04:18.208Z,7.90
2023-01-10T15:07:00.005Z,8.63
2023-01-10T15:09:27.903Z,13.10
2023-01-10T15:11:55.491Z,7.83
2023-01-10T15:14:26.141Z,9.53
2023-01-10T15:16:57.461Z,10.20
2023-01-10T15:19:25.318Z,9.43
2023-01-10T15:21:52.413Z,10.43
2023-01-10T15:24:33.355Z,8.23
2023-01-10T15:27:04.163Z,8.67
2023-01-10T15:29:31.708Z,14.27
2023-01-10T15:32:17.724Z,13.40
2023-01-10T15:34:49.667Z,8.80
2023-01-10T15:37:22.275Z,13.27
2023-01-10T15:39:49.334Z,18.70
2023-01-10T15:42:21.030Z,10.87
2023-01-10T15:44:52.657Z,6.90
2023-01-10T15:47:41.937Z,16.57
2023-01-10T15:50:21.294Z,12.47
2023-01-10T15:52:53.125Z,13.57
2023-01-10T15:55:34.805Z,13.23
2023-01-10T15:58:02.184Z,9.23
2023-01-10T16:00:30.142Z,11.53
2023-01-10T16:02:57.708Z,7.40
2023-01-10T16:05:24.816Z,9.50
2023-01-10T16:07:51.958Z,9.30
2023-01-10T16:10:21.974Z,17.53
2023-01-10T16:13:07.893Z,15.43
2023-01-10T16:15:38.193Z,7.87
2023-01-10T16:18:05.344Z,10.53
2023-01-10T16:20:39.077Z,16.20
2023-01-10T16:23:10.481Z,20.87
2023-01-10T16:25:38.906Z,9.00
2023-01-10T16:28:06.319Z,3.40
2023-01-10T16:30:34.463Z,6.10
2023-01-10T16:33:10.787Z,6.43
2023-01-10T16:35:37.922Z,9.17
2023-01-10T16:38:05.019Z,11.43
2023-01-10T16:40:37.622Z,8.03
2023-01-10T16:43:25.563Z,9.93
2023-01-10T16:45:54.737Z,3.57
2023-01-10T16:48:22.071Z,10.53
2023-01-10T16:50:49.372Z,11.90
2023-01-10T16:53:18.760Z,8.30
2023-01-10T16:55:52.957Z,5.80
2023-01-10T16:58:20.794Z,9.47
2023-01-10T17:00:50.702Z,15.13
2023-01-10T17:03:21.756Z,8.37
2023-01-10T17:05:48.966Z,6.03
2023-01-10T17:08:19.001Z,8.97
2023-01-10T17:10:48.947Z,7.47
2023-01-10T17:13:27.077Z,8.40
2023-01-10T17:15:54.171Z,12.50
2023-01-10T17:18:21.491Z,7.63
2023-01-10T17:20:48.847Z,7.67
2023-01-10T17:23:15.991Z,8.70
2023-01-10T17:25:42.716Z,6.53
2023-01-10T17:28:11.692Z,6.20
2023-01-10T17:30:42.050Z,9.93
2023-01-10T17:33:11.935Z,9.87
2023-01-10T17:35:42.776Z,8.87
2023-01-10T17:38:16.174Z,9.87
2023-01-10T17:40:47.301Z,5.90
2023-01-10T17:43:15.301Z,10.30
2023-01-10T17:45:44.210Z,12.10
2023-01-10T17:48:13.039Z,18.93
2023-01-10T17:50:40.068Z,8.90
2023-01-10T17:53:07.267Z,10.40
2023-01-10T17:55:34.291Z,14.00
2023-01-10T17:58:05.243Z,9.53
2023-01-10T18:00:32.346Z,7.00
2023-01-10T18:02:59.424Z,10.73
2023-01-10T18:05:26.497Z,7.90
2023-01-10T18:07:53.587Z,14.30
2023-01-10T18:10:20.630Z,11.37
2023-01-10T18:12:47.686Z,4.43
2023-01-10T18:15:14.710Z,6.27
2023-01-10T18:17:41.722Z,7.67
2023-01-10T18:20:09.363Z,6.20
2023-01-10T18:22:55.163Z,14.43
2023-01-10T18:25:22.287Z,7.70
2023-01-10T18:27:50.427Z,11.00
2023-01-10T18:30:22.131Z,10.97
2023-01-10T18:32:49.500Z,9.60
2023-01-10T18:35:16.212Z,5.90
2023-01-10T18:37:43.229Z,6.90
2023-01-10T18:40:10.549Z,8.47
2023-01-10T18:42:37.991Z,10.37
2023-01-10T18:45:06.140Z,5.33
2023-01-10T18:47:33.295Z,11.27
2023-01-10T18:50:00.385Z,7.87
2023-01-10T18:52:27.485Z,14.60
2023-01-10T18:54:54.622Z,11.30
2023-01-10T18:57:21.430Z,7.70
2023-01-10T18:59:48.571Z,11.10
2023-01-10T19:02:16.775Z,15.03
2023-01-10T19:04:43.854Z,9.07
2023-01-10T19:07:10.902Z,6.20
2023-01-10T19:09:37.913Z,9.87
2023-01-10T19:12:04.718Z,9.37
2023-01-10T19:14:31.358Z,12.27
2023-01-10T19:16:58.447Z,9.87
2023-01-10T19:19:25.084Z,8.27
2023-01-10T19:21:52.188Z,7.47
2023-01-10T19:24:22.698Z,11.90
2023-01-10T19:26:49.760Z,10.77
2023-01-10T19:29:16.560Z,8.17
2023-01-10T19:31:44.609Z,10.07
2023-01-10T19:34:12.529Z,16.27
2023-01-10T19:36:41.428Z,12.73
2023-01-10T19:39:09.559Z,8.57
2023-01-10T19:41:36.943Z,8.27
2023-01-10T19:44:10.695Z,6.43
2023-01-10T19:46:38.976Z,8.97
2023-01-10T19:49:07.877Z,7.67
2023-01-10T19:51:39.490Z,7.77
2023-01-10T19:54:07.577Z,7.57
2023-01-10T19:56:35.566Z,10.57
2023-01-10T19:59:02.696Z,10.17
2023-01-10T20:01:30.816Z,8.00
2023-01-10T20:04:01.423Z,7.93
2023-01-10T20:06:30.030Z,6.53
2023-01-10T20:08:57.116Z,7.77
2023-01-10T20:11:25.381Z,7.47
2023-01-10T20:13:52.729Z,4.97
2023-01-10T20:16:21.785Z,5.67
2023-01-10T20:18:49.349Z,6.40
2023-01-10T20:21:18.420Z,6.67
2023-01-10T20:23:45.606Z,5.10
2023-01-10T20:26:14.559Z,6.03
2023-01-10T20:28:42.579Z,6.80
2023-01-10T20:31:13.062Z,9.23
2023-01-10T20:33:40.156Z,3.07
2023-01-10T20:36:10.652Z,7.00
2023-01-10T20:38:38.125Z,7.30
2023-01-10T20:41:15.514Z,3.27
2023-01-10T20:43:42.907Z,6.13
2023-01-10T20:46:12.096Z,4.40
2023-01-10T20:48:40.000Z,4.77
2023-01-10T20:51:07.164Z,4.33
2023-01-10T20:53:34.259Z,6.30
2023-01-10T20:56:06.376Z,6.13
2023-01-10T20:58:34.875Z,2.37
2023-01-10T21:01:01.966Z,4.77
2023-01-10T21:03:29.116Z,3.90
2023-01-10T21:05:57.444Z,4.33
2023-01-10T21:08:24.643Z,4.67
2023-01-10T21:10:52.408Z,1.80
2023-01-10T21:13:19.314Z,1.97
2023-01-10T21:15:47.073Z,2.27
2023-01-10T21:18:15.752Z,2.07
2023-01-10T21:20:46.808Z,1.30
2023-01-10T21:23:14.387Z,2.20
2023-01-10T21:25:41.895Z,3.37
2023-01-10T21:28:09.770Z,1.17
2023-01-10T21:30:37.404Z,1.97
2023-01-10T21:33:05.427Z,2.00
2023-01-10T21:35:32.810Z,0.63
2023-01-10T21:37:59.911Z,0.70
2023-01-10T21:40:27.668Z,2.17
2023-01-10T21:42:54.981Z,2.90
2023-01-10T21:45:22.319Z,0.93
2023-01-10T21:47:49.607Z,0.50
2023-01-10T21:50:17.487Z,2.27
2023-01-10T21:52:44.634Z,0.73
2023-01-10T21:55:14.235Z,0.70
2023-01-10T21:57:41.307Z,0.77
2023-01-10T22:00:08.876Z,1.17
2023-01-10T22:02:38.801Z,1.17
2023-01-10T22:05:06.067Z,0.70
2023-01-10T22:07:33.163Z,0.60
2023-01-10T22:10:00.303Z,1.53
2023-01-10T22:12:28.696Z,2.20
2023-01-10T22:14:55.718Z,0.50
2023-01-10T22:17:23.100Z,0.97
2023-01-10T22:19:50.178Z,1.23
2023-01-10T22:22:18.773Z,0.40
2023-01-10T22:24:47.802Z,1.90
2023-01-10T22:27:16.315Z,0.77
2023-01-10T22:29:43.565Z,1.00
2023-01-10T22:32:10.657Z,0.40
2023-01-10T22:34:37.974Z,0.63
2023-01-10T22:37:05.147Z,3.23
2023-01-10T22:39:31.893Z,0.80
2023-01-10T22:41:59.074Z,0.70
2023-01-10T22:44:26.912Z,0.60
2023-01-10T22:46:55.088Z,0.33
2023-01-10T22:49:22.419Z,0.97
2023-01-10T22:51:49.608Z,1.33
2023-01-10T22:54:17.667Z,1.07
2023-01-10T22:56:45.716Z,0.57
2023-01-10T22:59:12.950Z,1.40
2023-01-10T23:01:40.476Z,0.33
2023-01-10T23:04:07.715Z,0.30
2023-01-10T23:06:34.888Z,0.50
2023-01-10T23:09:01.961Z,0.47
2023-01-10T23:11:29.180Z,1.80
2023-01-10T23:13:56.236Z,0.50
2023-01-10T23:16:28.618Z,1.20
2023-01-10T23:18:57.098Z,0.87
2023-01-10T23:21:24.496Z,0.30
2023-01-10T23:23:51.571Z,0.93
2023-01-10T23:26:18.931Z,0.80
2023-01-10T23:28:51.167Z,0.30
2023-01-10T23:31:22.738Z,0.40
2023-01-10T23:33:50.556Z,0.30
2023-01-10T23:36:17.984Z,0.43
2023-01-10T23:38:45.169Z,1.60
2023-01-10T23:41:12.584Z,1.10
2023-01-10T23:43:39.619Z,0.47
2023-01-10T23:46:06.972Z,0.43
2023-01-10T23:48:34.164Z,2.07
2023-01-10T23:51:01.322Z,0.20
2023-01-10T23:53:28.403Z,0.30
2023-01-10T23:55:55.552Z,0.53
2023-01-10T23:58:22.601Z,0.70
